Harden Gardens, CA

11:54 PM PST on December 10, 2016 (GMT -0800)
Dodge Ridge - Summit | | Change Station

Elev 8163 ft 38.19 °N, 119.93 °W | Updated 4 minutes ago

Overcast
Overcast
33.4 °F
Feels Like 33 °F
N
0.3
Wind Variable Wind from SE
Gusts 4.3 mph

Today
High -- | Low -- °F
--% Chance of Precip.
Yesterday
High -- | Low -- °F
Precip. -- in
Pressure 30.08 in
Visibility 10.0 miles
Clouds Scattered Clouds 1300 ft
Scattered Clouds 2200 ft
Mostly Cloudy 5000 ft
Windchill 33 °F
Dew Point 31 °F
Humidity 89%
Rainfall 1.21 in
Snow Depth Not available.
7:03 AM 4:39 PM
Waxing Gibbous, 90% visible
METAR KMMH 110735Z AUTO 24015G24KT 10SM SCT013 SCT022 BKN050 09/00 A3008 RMK AO2 T00900000
Pressure 30.08 in
Visibility 10.0 miles
Clouds Scattered Clouds 1300 ft
Scattered Clouds 2200 ft
Mostly Cloudy 5000 ft
Windchill 33 °F
Dew Point 31 °F
Humidity 89%
Rainfall 1.21 in
Snow Depth Not available.
7:03 AM 4:39 PM
Waxing Gibbous, 90% visible
METAR KMMH 110735Z AUTO 24015G24KT 10SM SCT013 SCT022 BKN050 09/00 A3008 RMK AO2 T00900000

10-Day Weather Forecast

Almanac

Astronomy

Dec. 10, 2016 Rise Set
Actual Time
Civil Twilight
Nautical Twilight
Astronomical Twilight
Moon
Length of Visible Light
Length of Day
Tomorrow will be .
, % of the Moon is Illuminated

Today's Extremes

State Highs State Lows

Community

WunderPhotos

Upload Photos

1,956,707 photos uploaded!

WunderBlog® & News

Nearby

Air Quality

  Air Quality AQ Index Pollutant
Not available.

Snow Depth

Station Depth Elevation

Earthquake Activity

City Distance Mag. Time & Date
Minimum magnitude displayed is 2.5.

Coastal Water Temperatures

Place Temperature

Stations

Nearby Weather Stations

Station Location Temp. Windchill Dew Point Humidity Wind Precip. Elev Updated Type
                   

Watches & Warnings

There are currently no watches in effect.